createdAt,value
2018-05-09T06:37:21.887Z,4.47
2018-05-09T06:39:49.429Z,4.70
2018-05-09T06:42:17.062Z,4.50
2018-05-09T06:44:44.653Z,4.70
2018-05-09T06:47:12.201Z,4.47
2018-05-09T06:49:40.734Z,4.80
2018-05-09T06:52:08.278Z,4.33
2018-05-09T06:54:35.971Z,5.10
2018-05-09T06:57:03.508Z,5.13
2018-05-09T06:59:31.063Z,4.80
2018-05-09T07:01:58.587Z,5.33
2018-05-09T07:04:26.113Z,5.27
2018-05-09T07:06:53.642Z,4.03
2018-05-09T07:09:21.190Z,4.33
2018-05-09T07:11:48.752Z,4.37
2018-05-09T07:14:16.264Z,3.67
2018-05-09T07:16:43.803Z,3.97
2018-05-09T07:19:11.327Z,3.50
2018-05-09T07:21:38.865Z,3.60
2018-05-09T07:24:06.414Z,2.90
2018-05-09T07:26:33.917Z,3.53
2018-05-09T07:29:01.477Z,3.50
2018-05-09T07:31:29.011Z,2.83
2018-05-09T07:33:56.604Z,3.00
2018-05-09T07:36:24.171Z,2.37
2018-05-09T07:38:51.823Z,2.50
2018-05-09T07:41:19.432Z,2.63
2018-05-09T07:43:47.006Z,2.70
2018-05-09T07:46:14.544Z,2.50
2018-05-09T07:48:42.066Z,2.43
2018-05-09T07:51:09.596Z,2.13
2018-05-09T07:53:37.127Z,2.03
2018-05-09T07:56:04.637Z,2.90
2018-05-09T07:58:32.173Z,2.40
2018-05-09T08:00:59.717Z,2.40
2018-05-09T08:03:27.243Z,2.80
2018-05-09T08:05:54.848Z,2.53
2018-05-09T08:08:22.337Z,1.90
2018-05-09T08:10:49.862Z,2.03
2018-05-09T08:13:17.444Z,2.15
2018-05-09T08:15:45.059Z,2.15
2018-05-09T08:18:12.593Z,2.20
2018-05-09T08:20:40.128Z,2.08
2018-05-09T08:23:07.737Z,1.35
2018-05-09T08:25:35.255Z,2.50
2018-05-09T08:28:02.779Z,1.30
2018-05-09T08:30:30.338Z,1.83
2018-05-09T08:32:57.865Z,1.67
2018-05-09T08:35:25.395Z,1.77
2018-05-09T08:37:52.917Z,1.80
2018-05-09T08:40:20.484Z,1.62
2018-05-09T08:42:48.012Z,2.10
2018-05-09T08:45:15.823Z,1.75
2018-05-09T08:47:43.462Z,1.80
2018-05-09T08:50:10.977Z,1.45
2018-05-09T08:52:38.503Z,1.73
2018-05-09T08:55:06.047Z,2.28
2018-05-09T08:57:33.653Z,2.00
2018-05-09T09:00:01.174Z,1.70
2018-05-09T09:02:28.940Z,1.48
2018-05-09T09:04:56.897Z,1.40
2018-05-09T09:07:24.435Z,1.95
2018-05-09T09:09:52.063Z,1.80
2018-05-09T09:12:19.783Z,1.50
2018-05-09T09:14:47.404Z,1.55
2018-05-09T09:17:14.912Z,1.62
2018-05-09T09:19:42.466Z,1.50
2018-05-09T09:22:09.979Z,1.62
2018-05-09T09:24:37.689Z,1.30
2018-05-09T09:27:05.235Z,1.40
2018-05-09T09:29:32.745Z,1.42
2018-05-09T09:32:00.340Z,1.02
2018-05-09T09:34:27.859Z,1.00
2018-05-09T09:36:55.404Z,1.10
2018-05-09T09:39:22.928Z,0.90
2018-05-09T09:41:50.468Z,1.02
2018-05-09T09:44:18.039Z,1.27
2018-05-09T09:46:45.614Z,1.25
2018-05-09T09:49:13.450Z,2.00
2018-05-09T09:51:41.063Z,2.27
2018-05-09T09:54:08.672Z,0.93
2018-05-09T09:56:36.313Z,1.12
2018-05-09T09:59:04.102Z,1.83
2018-05-09T10:01:31.694Z,1.20
2018-05-09T10:03:59.190Z,1.12
2018-05-09T10:06:26.694Z,1.00
2018-05-09T10:08:54.204Z,0.83
2018-05-09T10:11:21.830Z,1.20
2018-05-09T10:13:49.424Z,0.82
2018-05-09T10:16:16.992Z,1.02
2018-05-09T10:18:44.529Z,1.73
2018-05-09T10:21:12.133Z,1.60
2018-05-09T10:23:39.774Z,1.20
2018-05-09T10:26:07.430Z,1.25
2018-05-09T10:28:35.054Z,2.20
2018-05-09T10:31:02.678Z,1.27
2018-05-09T10:33:30.186Z,1.10
2018-05-09T10:35:57.825Z,1.12
2018-05-09T10:38:25.435Z,0.95
2018-05-09T10:40:53.002Z,1.20
2018-05-09T10:43:20.825Z,1.20
2018-05-09T10:45:48.514Z,1.00
2018-05-09T10:48:16.036Z,1.02
2018-05-09T10:50:43.760Z,1.17
2018-05-09T10:53:11.431Z,1.40
2018-05-09T10:55:38.939Z,1.60
2018-05-09T10:58:06.481Z,1.52
2018-05-09T11:00:34.708Z,1.12
2018-05-09T11:03:02.292Z,2.40
2018-05-09T11:05:29.868Z,1.60
2018-05-09T11:07:57.439Z,1.75
2018-05-09T11:10:25.010Z,1.70
2018-05-09T11:12:52.524Z,2.00
2018-05-09T11:15:20.240Z,2.30
2018-05-09T11:17:47.778Z,2.30
2018-05-09T11:20:15.304Z,2.30
2018-05-09T11:22:42.836Z,2.87
2018-05-09T11:25:10.409Z,3.07
2018-05-09T11:27:37.962Z,2.50
2018-05-09T11:30:05.518Z,2.80
2018-05-09T11:32:33.262Z,2.40
2018-05-09T11:35:00.807Z,1.50
2018-05-09T11:37:28.365Z,1.77
2018-05-09T11:39:55.974Z,1.40
2018-05-09T11:42:23.506Z,1.55
2018-05-09T11:44:51.093Z,1.12
2018-05-09T11:47:18.620Z,1.45
2018-05-09T11:49:46.155Z,1.23
2018-05-09T11:52:13.678Z,0.95
2018-05-09T11:54:41.231Z,0.80
2018-05-09T11:57:08.769Z,1.08
2018-05-09T11:59:36.316Z,1.20
2018-05-09T12:02:03.906Z,1.05
2018-05-09T12:04:31.571Z,1.42
2018-05-09T12:06:59.934Z,1.23
2018-05-09T12:09:27.461Z,1.77
2018-05-09T12:11:55.017Z,1.80
2018-05-09T12:14:22.549Z,2.20
2018-05-09T12:16:50.170Z,1.93
2018-05-09T12:19:17.683Z,1.67
2018-05-09T12:21:45.340Z,1.42
2018-05-09T12:24:12.875Z,1.23
2018-05-09T12:26:40.404Z,1.40
2018-05-09T12:29:07.911Z,0.90
2018-05-09T12:31:35.425Z,1.10
2018-05-09T12:34:03.047Z,1.02
2018-05-09T12:36:30.646Z,0.70
2018-05-09T12:38:58.179Z,1.30
2018-05-09T12:41:25.856Z,1.00
2018-05-09T12:43:53.457Z,1.58
2018-05-09T12:46:21.091Z,1.40
2018-05-09T12:48:48.788Z,1.40
2018-05-09T12:51:16.335Z,1.37
2018-05-09T12:53:43.969Z,0.93
2018-05-09T12:56:11.626Z,1.52
2018-05-09T12:58:39.253Z,1.30
2018-05-09T13:01:06.784Z,1.17
2018-05-09T13:03:34.306Z,1.27
2018-05-09T13:06:02.014Z,1.10
2018-05-09T13:08:29.530Z,2.08
2018-05-09T13:10:57.149Z,1.10
2018-05-09T13:13:24.713Z,1.10
2018-05-09T13:15:52.373Z,1.23
2018-05-09T13:18:20.005Z,1.73
2018-05-09T13:20:47.620Z,1.15
2018-05-09T13:23:15.413Z,1.40
2018-05-09T13:25:43.046Z,1.60
2018-05-09T13:28:10.804Z,1.60
2018-05-09T13:30:38.630Z,1.35
2018-05-09T13:33:06.212Z,1.87
2018-05-09T13:35:34.104Z,2.00
2018-05-09T13:38:01.804Z,2.47
2018-05-09T13:40:29.340Z,2.53
2018-05-09T13:42:57.045Z,3.30
2018-05-09T13:45:24.676Z,2.20
2018-05-09T13:47:52.556Z,2.63
2018-05-09T13:50:20.074Z,2.97
2018-05-09T13:52:47.791Z,2.70
2018-05-09T13:55:15.316Z,2.57
2018-05-09T13:57:43.016Z,3.00
2018-05-09T14:00:10.689Z,3.17
2018-05-09T14:02:38.359Z,2.87
2018-05-09T14:05:06.210Z,2.77
2018-05-09T14:07:33.807Z,2.80
2018-05-09T14:10:01.470Z,2.92
2018-05-09T14:12:29.008Z,2.60
2018-05-09T14:14:56.541Z,2.50
2018-05-09T14:17:24.096Z,2.73
2018-05-09T14:19:51.645Z,3.20
2018-05-09T14:22:19.379Z,3.13
2018-05-09T14:24:46.925Z,2.70
2018-05-09T14:27:14.488Z,3.60
2018-05-09T14:29:42.069Z,2.20
2018-05-09T14:32:09.641Z,2.77
2018-05-09T14:34:37.179Z,2.80
2018-05-09T14:37:04.894Z,3.97
2018-05-09T14:39:32.419Z,4.23
2018-05-09T14:42:00.014Z,4.07
2018-05-09T14:44:27.561Z,3.57
2018-05-09T14:46:55.091Z,3.57
2018-05-09T14:49:22.765Z,3.80
2018-05-09T14:51:50.494Z,3.10
2018-05-09T14:54:18.309Z,3.30
2018-05-09T14:56:45.866Z,3.90
2018-05-09T14:59:13.395Z,3.90
2018-05-09T15:01:40.927Z,3.70
2018-05-09T15:04:08.459Z,2.47
2018-05-09T15:06:36.150Z,2.43
2018-05-09T15:09:03.714Z,2.43
2018-05-09T15:11:31.256Z,2.80
2018-05-09T15:13:58.808Z,2.80
2018-05-09T15:16:26.456Z,2.70
2018-05-09T15:18:53.974Z,3.10
2018-05-09T15:21:21.848Z,4.10
2018-05-09T15:23:49.360Z,3.20
2018-05-09T15:26:16.895Z,2.70
2018-05-09T15:28:44.591Z,2.70
2018-05-09T15:31:12.114Z,2.97
2018-05-09T15:33:39.752Z,2.10
2018-05-09T15:36:07.285Z,3.10
2018-05-09T15:38:34.851Z,3.17
2018-05-09T15:41:02.409Z,3.20
2018-05-09T15:43:29.944Z,2.67
2018-05-09T15:45:57.555Z,3.77
2018-05-09T15:48:25.094Z,2.90
2018-05-09T15:50:52.766Z,2.80
2018-05-09T15:53:20.313Z,2.60
2018-05-09T15:55:47.862Z,1.80
2018-05-09T15:58:15.404Z,2.47
2018-05-09T16:00:42.960Z,2.60
2018-05-09T16:03:10.512Z,2.30
2018-05-09T16:05:38.145Z,2.73
2018-05-09T16:08:05.699Z,4.37
2018-05-09T16:10:33.408Z,2.50
2018-05-09T16:13:00.892Z,2.30
2018-05-09T16:15:28.602Z,2.70
2018-05-09T16:17:56.200Z,3.10
2018-05-09T16:20:23.830Z,2.30
2018-05-09T16:22:51.628Z,3.00
2018-05-09T16:25:19.171Z,3.17
2018-05-09T16:27:46.702Z,2.70
2018-05-09T16:30:14.355Z,2.42
2018-05-09T16:32:41.983Z,2.40
2018-05-09T16:35:09.631Z,3.17
2018-05-09T16:37:37.407Z,2.40
2018-05-09T16:40:05.321Z,2.30
2018-05-09T16:42:32.944Z,2.17
2018-05-09T16:45:00.525Z,2.60
2018-05-09T16:47:28.101Z,2.50
2018-05-09T16:49:55.670Z,2.70
2018-05-09T16:52:23.356Z,2.80
2018-05-09T16:54:51.054Z,2.90
2018-05-09T16:57:18.616Z,3.17
2018-05-09T16:59:46.341Z,2.40
2018-05-09T17:02:14.171Z,3.00
2018-05-09T17:04:42.103Z,2.30
2018-05-09T17:07:09.743Z,2.47
2018-05-09T17:09:37.519Z,2.80
2018-05-09T17:12:05.171Z,2.60
2018-05-09T17:14:32.727Z,2.80
2018-05-09T17:17:00.305Z,3.83
2018-05-09T17:19:27.851Z,2.63
2018-05-09T17:22:13.068Z,2.40
2018-05-09T17:34:29.297Z,2.43
2018-05-09T17:36:56.837Z,3.00
2018-05-09T17:39:24.466Z,3.00
2018-05-09T17:41:52.003Z,3.30
2018-05-09T19:07:42.949Z,3.27
2018-05-09T19:10:10.509Z,4.30
2018-05-09T19:12:38.157Z,3.77
2018-05-09T19:20:00.054Z,3.60
2018-05-09T20:04:08.819Z,4.40
